Accueil
METAR-TAF:

METAR-TAF

Aéroports :

Agra, Inde

latitude: 27-09-27N, longitude: 077-57-39E, altitude: 168 m

METAR: absent

Heure: 05:23 (23:53 UTC)

Prévision

Le bulletin a été fait il y a 14 heures et 23 minutes, à 09:30 UTC
Prévision valable du 26 à 12 UTC au 26 à 24 UTC
Vent 5 kt de ouest
Visibilité: 6000 m
Nuages épars à une hauteur de 25000 ft
Evoluant progressivement
du 26 à 18 UTC au 26 à 19 UTC
Vent 2 kt de direction variable
Visibilité: 5000 m
brume
Evoluant progressivement
du 26 à 23 UTC au 26 à 24 UTC
Visibilité: 3000 m
brume

TAF: VIAG 260930Z 2612/2624 27005KT 6000 SCT250 BECMG 2618/2619 VRB02KT 5000 BR BECMG 2623/2624 3000 BR

Observations et prévisions météorologiques de plus de 4000 aéroports (messages METAR et TAF).

Les stations disponibles sont représentées par des disques jaunes et rouges sur la carte.

Passer la souris dessus pour voir le nom de la station.

Cliquer dessus pour voir les observations et prévisions météorologiques.

Pour changer de carte: cliquez sur les boutons verts avec une croix noire pour zoomer, sur le bouton vert avec un tiret pour effectuer un zoom arrière, ou sur les flèches vertes pour les cartes adjacentes.


METAR-TAF: